Time;durP1;ratioP1;P1;durP2;ratioP2;P2;SDS_P1;SDS_P2;PMS_P1;PMS_P2;Temp;Humidity;BMP_temperature;BMP_pressure;BME280_temperature;BME280_humidity;BME280_pressure;Samples;Min_cycle;Max_cycle;Signal;HPM_P1;HPM_P2
2023/11/25 00:02:12;;;;;;;7.05;2.17;;;;;;;25.68;34.75;97835.13;4512174;31;33280;-59
2023/11/25 00:04:39;;;;;;;10.30;2.50;;;;;;;25.66;34.78;97842.00;4512082;31;34874;-58
2023/11/25 00:07:07;;;;;;;5.20;2.05;;;;;;;25.64;34.85;97853.19;4512232;31;34070;-59
2023/11/25 00:09:34;;;;;;;8.20;2.17;;;;;;;25.61;34.88;97864.72;4512139;31;33748;-59
2023/11/25 00:12:02;;;;;;;6.95;2.40;;;;;;;25.59;34.92;97855.97;4512031;31;34270;-59
2023/11/25 00:14:30;;;;;;;7.57;1.85;;;;;;;25.58;34.93;97864.47;4512058;31;33694;-58
2023/11/25 00:16:57;;;;;;;3.80;1.62;;;;;;;25.55;34.94;97865.84;4511912;31;34016;-57
2023/11/25 00:19:25;;;;;;;10.63;2.28;;;;;;;25.54;34.97;97866.13;4511892;31;33826;-59
2023/11/25 00:21:53;;;;;;;5.47;2.00;;;;;;;25.51;34.99;97889.37;4511931;31;34207;-56
2023/11/25 00:24:20;;;;;;;8.40;2.12;;;;;;;25.49;35.05;97896.22;4512064;31;34006;-59
2023/11/25 00:26:48;;;;;;;6.55;2.22;;;;;;;25.48;35.13;97908.25;4510578;31;32790;-58
2023/11/25 00:29:15;;;;;;;6.37;1.98;;;;;;;25.45;35.13;97910.44;4511780;31;33822;-58
2023/11/25 00:31:47;;;;;;;3.67;1.52;;;;;;;25.44;35.24;97910.72;4511695;31;33157;-58
2023/11/25 00:34:15;;;;;;;7.37;2.00;;;;;;;25.43;35.26;97906.38;4511806;31;34739;-57
2023/11/25 00:36:42;;;;;;;7.57;2.17;;;;;;;25.42;35.31;97918.41;4511798;31;33993;-57
2023/11/25 00:39:11;;;;;;;5.57;2.30;;;;;;;25.41;35.36;97919.47;4511672;31;34575;-57
2023/11/25 00:41:39;;;;;;;6.15;2.00;;;;;;;25.38;35.39;97914.59;4501118;31;33593;-58
2023/11/25 00:44:07;;;;;;;7.90;2.00;;;;;;;25.35;35.41;97910.50;4495825;32;33630;-59
2023/11/25 00:46:34;;;;;;;5.35;2.10;;;;;;;25.34;35.51;97900.69;4495685;32;34056;-59
2023/11/25 00:49:04;;;;;;;3.62;1.95;;;;;;;25.33;35.53;97901.00;4495669;32;33698;-59
2023/11/25 00:51:32;;;;;;;4.78;1.85;;;;;;;25.32;35.47;97913.00;4495980;32;33139;-58
2023/11/25 00:53:59;;;;;;;4.87;2.20;;;;;;;25.30;35.49;97902.38;4495732;31;33584;-58
2023/11/25 00:56:27;;;;;;;4.07;2.17;;;;;;;25.29;35.59;97902.66;4495796;32;33853;-59
2023/11/25 00:58:54;;;;;;;5.03;1.92;;;;;;;25.28;35.53;97898.31;4495924;32;34479;-59
2023/11/25 01:01:22;;;;;;;6.55;1.92;;;;;;;25.26;35.63;97886.84;4484648;32;33565;-57
2023/11/25 01:03:50;;;;;;;3.92;2.00;;;;;;;25.26;35.56;97892.31;4484076;32;34743;-59
2023/11/25 01:06:17;;;;;;;5.95;2.22;;;;;;;25.24;35.61;97897.25;4485373;32;33820;-59
2023/11/25 01:08:45;;;;;;;6.43;2.20;;;;;;;25.21;35.64;97893.16;4484985;32;34556;-58
2023/11/25 01:11:15;;;;;;;5.80;1.80;;;;;;;25.21;35.63;97882.22;4485173;32;34152;-57
2023/11/25 01:13:43;;;;;;;4.18;1.80;;;;;;;25.18;35.76;97880.91;4485115;32;34132;-59
2023/11/25 01:16:16;;;;;;;3.35;1.50;;;;;;;25.17;35.77;97881.97;4485112;32;33877;-58
2023/11/25 01:18:44;;;;;;;3.62;1.92;;;;;;;25.16;35.87;97874.91;4485247;32;34402;-57
2023/11/25 01:21:12;;;;;;;4.57;1.80;;;;;;;25.14;35.85;97881.75;4484991;32;33576;-58
2023/11/25 01:23:39;;;;;;;5.85;1.98;;;;;;;25.13;35.85;97885.56;4485129;32;34795;-58
2023/11/25 01:26:08;;;;;;;5.28;2.00;;;;;;;25.13;35.96;97891.03;4485026;32;34357;-58
2023/11/25 01:28:37;;;;;;;6.03;1.90;;;;;;;25.12;36.00;97890.22;4484731;32;33870;-57
2023/11/25 01:31:05;;;;;;;2.95;1.62;;;;;;;25.10;36.13;97884.22;4485032;32;34191;-58
2023/11/25 01:33:32;;;;;;;3.47;1.85;;;;;;;25.09;36.08;97885.34;4484986;32;34679;-58
2023/11/25 01:36:00;;;;;;;8.48;1.90;;;;;;;25.10;36.04;97881.50;4484921;32;34989;-58
2023/11/25 01:38:27;;;;;;;5.95;2.00;;;;;;;25.08;36.08;97867.31;4484992;32;34623;-58
2023/11/25 01:40:55;;;;;;;3.35;1.50;;;;;;;25.07;36.08;97857.50;4484861;32;34276;-57
2023/11/25 01:43:25;;;;;;;4.35;1.83;;;;;;;25.07;36.00;97862.13;4484860;32;33638;-58
2023/11/25 01:45:52;;;;;;;3.53;1.83;;;;;;;25.05;36.04;97853.41;4485276;32;34049;-59
2023/11/25 01:48:20;;;;;;;5.15;1.80;;;;;;;25.04;36.09;97841.69;4483706;32;34539;-57
2023/11/25 01:50:48;;;;;;;6.10;1.52;;;;;;;25.03;36.08;97831.84;4484715;32;33442;-58
2023/11/25 01:53:19;;;;;;;3.60;1.77;;;;;;;25.02;36.10;97827.50;4483315;32;34031;-57
2023/11/25 01:55:47;;;;;;;6.68;1.75;;;;;;;25.02;36.13;97832.94;4483772;32;34698;-59
2023/11/25 01:58:18;;;;;;;3.72;1.80;;;;;;;25.01;36.11;97825.88;4484746;32;34618;-59
2023/11/25 02:00:45;;;;;;;5.25;1.90;;;;;;;25.01;36.14;97835.97;4483715;32;33202;-59
2023/11/25 02:03:13;;;;;;;3.35;1.55;;;;;;;24.98;36.15;97829.16;4484794;32;33948;-59
2023/11/25 02:05:42;;;;;;;4.80;2.10;;;;;;;24.98;36.21;97809.25;4484831;32;34106;-59
2023/11/25 02:08:10;;;;;;;4.07;1.73;;;;;;;24.97;36.18;97813.09;4484953;32;33822;-59
2023/11/25 02:10:41;;;;;;;4.97;1.80;;;;;;;24.95;36.15;97813.37;4484311;32;34105;-60
2023/11/25 02:13:09;;;;;;;3.78;1.50;;;;;;;24.96;36.11;97806.81;4484077;32;33272;-58
2023/11/25 02:15:37;;;;;;;3.45;1.77;;;;;;;24.93;36.11;97796.47;4484730;32;34151;-59
2023/11/25 02:18:05;;;;;;;3.92;1.80;;;;;;;24.92;36.18;97800.28;4483661;32;33965;-59
2023/11/25 02:20:37;;;;;;;3.78;1.75;;;;;;;24.91;36.14;97801.41;4484670;32;33509;-59
2023/11/25 02:23:05;;;;;;;4.80;1.73;;;;;;;24.89;36.20;97793.47;4484744;32;34707;-59
2023/11/25 02:25:32;;;;;;;4.10;1.55;;;;;;;24.89;36.15;97806.31;4483291;32;33822;-59
2023/11/25 02:28:00;;;;;;;3.47;1.60;;;;;;;24.88;36.28;97810.12;4484175;32;33662;-58
2023/11/25 02:30:29;;;;;;;3.92;2.10;;;;;;;24.88;36.14;97834.69;4484585;32;33519;-57
2023/11/25 02:32:57;;;;;;;5.53;1.92;;;;;;;24.87;36.26;97833.06;4484659;32;33765;-58
2023/11/25 02:35:25;;;;;;;4.43;1.83;;;;;;;24.87;36.25;97819.44;4484581;32;34887;-58
2023/11/25 02:37:52;;;;;;;3.00;1.58;;;;;;;24.85;36.18;97821.59;4484613;32;33638;-59
2023/11/25 02:40:21;;;;;;;4.45;1.92;;;;;;;24.85;36.27;97832.53;4484364;32;33565;-57
2023/11/25 02:42:52;;;;;;;;;;;;;;;24.83;36.29;97821.09;4484923;32;34083;-58
2023/11/25 02:45:20;;;;;;;4.82;1.52;;;;;;;24.93;36.07;97838.19;4484845;32;33749;-57
2023/11/25 02:47:49;;;;;;;2.90;1.70;;;;;;;24.84;36.18;97830.91;4484371;32;33848;-58
2023/11/25 02:50:17;;;;;;;3.03;1.52;;;;;;;24.81;36.26;97828.75;4484421;32;33094;-56
2023/11/25 02:52:45;;;;;;;3.85;1.60;;;;;;;24.80;36.21;97835.28;4484399;32;34902;-57
2023/11/25 02:55:13;;;;;;;2.78;1.50;;;;;;;24.78;36.21;97837.50;4484530;32;34156;-57
2023/11/25 02:57:45;;;;;;;5.72;1.80;;;;;;;24.78;36.25;97835.56;4484679;32;33825;-57
2023/11/25 03:00:36;;;;;;;4.78;1.65;;;;;;;24.76;36.28;97837.78;4484243;32;33384;-57
2023/11/25 03:03:09;;;;;;;3.12;1.80;;;;;;;24.76;36.29;97839.66;4484493;32;33648;-58
2023/11/25 03:05:37;;;;;;;3.85;1.65;;;;;;;24.75;36.26;97844.31;4484417;32;33802;-58
2023/11/25 03:08:06;;;;;;;5.28;1.60;;;;;;;24.74;36.37;97844.59;4484414;32;33681;-58
2023/11/25 03:10:33;;;;;;;3.22;1.62;;;;;;;24.72;36.47;97850.34;4484583;32;33451;-56
2023/11/25 03:13:01;;;;;;;3.67;1.73;;;;;;;24.72;36.47;97846.81;4484476;32;33640;-59
2023/11/25 03:15:30;;;;;;;5.95;1.50;;;;;;;24.72;36.51;97838.63;4484264;32;34031;-58
2023/11/25 03:17:57;;;;;;;4.12;1.70;;;;;;;24.71;36.51;97832.34;4484487;32;33816;-58
2023/11/25 03:20:25;;;;;;;3.72;1.73;;;;;;;24.71;36.47;97832.34;4484253;32;33971;-58
2023/11/25 03:22:53;;;;;;;5.20;1.30;;;;;;;24.71;36.51;97839.72;4483754;32;34753;-59
2023/11/25 03:25:22;;;;;;;3.37;1.52;;;;;;;24.70;36.50;97838.88;4484007;32;33950;-58
2023/11/25 03:27:51;;;;;;;;;;;;;;;24.69;36.49;97840.00;4484531;32;33910;-57
2023/11/25 03:30:19;;;;;;;2.80;1.42;;;;;;;24.79;36.34;97839.13;4484164;32;32922;-57
2023/11/25 03:32:48;;;;;;;5.15;1.58;;;;;;;24.70;36.31;97849.81;4484028;32;33976;-55
2023/11/25 03:35:16;;;;;;;3.17;1.40;;;;;;;24.66;36.52;97849.53;4484168;32;34005;-56
2023/11/25 03:37:43;;;;;;;3.45;1.58;;;;;;;24.66;36.42;97844.09;4484213;32;33738;-57
2023/11/25 03:40:13;;;;;;;5.40;1.58;;;;;;;24.65;36.46;97842.47;4483903;32;34271;-56
2023/11/25 03:42:43;;;;;;;8.85;1.55;;;;;;;24.63;36.57;97844.66;4484000;32;34061;-57
2023/11/25 03:45:13;;;;;;;3.42;1.35;;;;;;;24.63;36.62;97847.41;4484031;32;34074;-56
2023/11/25 03:47:41;;;;;;;3.90;1.62;;;;;;;24.62;36.65;97848.50;4483663;32;33850;-58
2023/11/25 03:50:11;;;;;;;3.85;1.37;;;;;;;24.62;36.58;97847.66;4483750;32;33896;-57
2023/11/25 03:52:40;;;;;;;2.72;1.65;;;;;;;24.62;36.54;97847.66;4483901;32;34610;-57
2023/11/25 03:55:09;;;;;;;2.37;1.37;;;;;;;24.62;36.47;97845.78;4483825;32;33935;-58
2023/11/25 03:57:43;;;;;;;2.92;1.58;;;;;;;24.62;36.55;97847.66;4484143;32;33855;-56
2023/11/25 04:00:14;;;;;;;7.22;1.67;;;;;;;24.59;36.53;97854.50;4483583;32;34103;-58
2023/11/25 04:02:43;;;;;;;4.72;1.45;;;;;;;24.59;36.53;97859.16;4483688;32;33508;-56
2023/11/25 04:05:11;;;;;;;3.45;1.45;;;;;;;24.59;36.60;97859.16;4483634;32;34103;-58
2023/11/25 04:07:39;;;;;;;3.87;1.48;;;;;;;24.58;36.50;97860.25;4483469;32;34787;-58
2023/11/25 04:10:13;;;;;;;3.00;1.65;;;;;;;24.58;36.51;97846.63;4483520;32;33495;-56
2023/11/25 04:12:42;;;;;;;3.92;1.67;;;;;;;24.56;36.61;97851.53;4483539;32;33634;-57
2023/11/25 04:15:10;;;;;;;4.30;1.83;;;;;;;24.56;36.60;97844.16;4483463;32;34201;-58
2023/11/25 04:17:38;;;;;;;4.05;1.40;;;;;;;24.54;36.72;97846.34;4483390;32;33975;-56
2023/11/25 04:20:13;;;;;;;5.20;1.60;;;;;;;24.54;36.77;97848.28;4483413;32;33092;-57
2023/11/25 04:22:45;;;;;;;2.50;1.33;;;;;;;24.53;36.88;97849.34;4483148;32;34660;-57
2023/11/25 04:25:13;;;;;;;3.58;1.50;;;;;;;24.51;36.85;97838.72;4483502;32;33648;-58
2023/11/25 04:27:48;;;;;;;3.50;1.40;;;;;;;24.50;36.79;97831.66;4483181;32;33781;-56
2023/11/25 04:30:16;;;;;;;2.33;1.40;;;;;;;24.49;36.92;97838.22;4483305;32;33579;-59
2023/11/25 04:32:47;;;;;;;3.00;1.50;;;;;;;24.49;36.83;97846.38;4483128;32;33665;-59
2023/11/25 04:35:16;;;;;;;3.72;1.58;;;;;;;24.48;36.92;97841.19;4484213;32;34634;-58
2023/11/25 04:37:47;;;;;;;4.97;1.83;;;;;;;24.49;36.87;97840.12;4485497;32;33865;-57
2023/11/25 04:40:16;;;;;;;5.07;1.52;;;;;;;24.48;36.90;97843.91;4485431;32;33260;-57
2023/11/25 04:42:44;;;;;;;2.92;1.37;;;;;;;24.45;36.94;97837.13;4485482;32;34057;-58
2023/11/25 04:45:20;;;;;;;7.65;1.50;;;;;;;24.46;36.91;97840.66;4485438;32;33787;-57
2023/11/25 04:47:49;;;;;;;5.32;1.40;;;;;;;24.46;36.93;97838.75;4485288;32;34030;-57
2023/11/25 04:50:18;;;;;;;5.20;1.50;;;;;;;24.44;36.98;97838.22;4485352;32;33290;-58
2023/11/25 04:52:45;;;;;;;2.67;1.40;;;;;;;24.44;37.00;97851.87;4485168;32;33774;-58
2023/11/25 04:55:13;;;;;;;4.20;1.55;;;;;;;24.42;37.01;97854.03;4485373;32;34129;-57
2023/11/25 04:57:42;;;;;;;4.15;1.58;;;;;;;24.41;37.06;97858.69;4485275;32;34017;-57
2023/11/25 05:00:10;;;;;;;4.75;1.70;;;;;;;24.42;36.99;97862.22;4485186;32;34046;-58
2023/11/25 05:02:39;;;;;;;3.67;1.42;;;;;;;24.41;36.98;97863.31;4485291;32;33709;-57
2023/11/25 05:05:07;;;;;;;5.50;1.50;;;;;;;24.40;36.99;97865.22;4485347;32;34243;-58
2023/11/25 05:07:35;;;;;;;4.53;1.62;;;;;;;24.40;37.04;97864.41;4484167;32;34633;-56
2023/11/25 05:10:05;;;;;;;2.33;1.37;;;;;;;24.38;37.14;97858.41;4485173;32;34307;-57
2023/11/25 05:12:33;;;;;;;3.30;1.30;;;;;;;24.38;37.03;97861.13;4485223;32;34644;-58
2023/11/25 05:15:00;;;;;;;5.07;1.30;;;;;;;24.38;37.11;97863.88;4485001;32;33812;-58
2023/11/25 05:17:29;;;;;;;3.15;1.67;;;;;;;24.38;37.12;97861.13;4485167;32;33600;-55
2023/11/25 05:19:57;;;;;;;2.08;1.30;;;;;;;24.36;37.12;97852.41;4485170;32;33463;-58
2023/11/25 05:22:28;;;;;;;3.65;1.42;;;;;;;24.36;37.10;97863.31;4484872;32;33805;-56
2023/11/25 05:24:56;;;;;;;2.75;1.30;;;;;;;24.35;37.09;97859.78;4485140;32;34178;-58
2023/11/25 05:27:23;;;;;;;3.12;1.55;;;;;;;24.35;37.11;97864.41;4485020;32;33883;-57
2023/11/25 05:29:51;;;;;;;3.33;1.40;;;;;;;24.34;37.17;97860.03;4485090;32;32793;-56
2023/11/25 05:32:18;;;;;;;3.17;1.50;;;;;;;24.33;37.12;97855.69;4484967;32;34011;-57
2023/11/25 05:34:46;;;;;;;5.43;1.52;;;;;;;24.32;37.16;97852.16;4485082;32;33743;-58
2023/11/25 05:37:14;;;;;;;2.72;1.17;;;;;;;24.31;37.19;97842.34;4485035;32;33134;-58
2023/11/25 05:39:43;;;;;;;4.10;1.60;;;;;;;24.31;37.20;97839.62;4484888;32;34237;-56
2023/11/25 05:42:10;;;;;;;2.95;1.20;;;;;;;24.30;37.25;97843.44;4484906;31;33674;-58
2023/11/25 05:44:38;;;;;;;3.17;1.52;;;;;;;24.29;37.27;97838.25;4484926;32;34716;-59
2023/11/25 05:47:06;;;;;;;3.17;1.37;;;;;;;24.28;37.30;97836.63;4484702;32;35251;-57
2023/11/25 05:49:33;;;;;;;3.72;1.52;;;;;;;24.28;37.33;97837.44;4484660;32;33799;-59
2023/11/25 05:52:01;;;;;;;3.37;1.33;;;;;;;24.28;37.36;97839.34;4484712;32;33993;-59
2023/11/25 05:54:28;;;;;;;2.75;1.42;;;;;;;24.26;37.25;97845.09;4484989;32;33677;-56
2023/11/25 05:56:56;;;;;;;2.53;1.20;;;;;;;24.27;37.29;97845.91;4484764;32;34714;-59
2023/11/25 05:59:23;;;;;;;3.83;1.35;;;;;;;24.26;37.32;97857.91;4484771;32;33249;-58
2023/11/25 06:01:51;;;;;;;3.05;1.42;;;;;;;24.26;37.33;97856.00;4484666;32;34252;-58
2023/11/25 06:04:19;;;;;;;5.62;1.45;;;;;;;24.25;37.33;97859.81;4484024;32;33747;-56
2023/11/25 06:06:49;;;;;;;2.60;1.27;;;;;;;24.24;37.37;97865.53;4484596;32;34103;-59
2023/11/25 06:09:17;;;;;;;3.92;1.15;;;;;;;24.24;37.38;97871.78;4482490;32;34152;-59
2023/11/25 06:11:45;;;;;;;2.92;1.30;;;;;;;24.24;37.38;97869.06;4483975;32;34910;-58
2023/11/25 06:14:15;;;;;;;2.33;1.40;;;;;;;24.23;37.38;97872.91;4484216;32;34481;-58
2023/11/25 06:16:42;;;;;;;2.95;1.27;;;;;;;24.22;37.33;97874.00;4484203;32;34266;-58
2023/11/25 06:19:11;;;;;;;2.95;1.10;;;;;;;24.22;37.34;97870.44;4484127;32;33064;-57
2023/11/25 06:21:39;;;;;;;4.15;1.50;;;;;;;24.21;37.36;97872.38;4482132;32;34044;-58
2023/11/25 06:24:10;;;;;;;4.80;1.40;;;;;;;24.20;37.40;97878.88;4484082;32;33716;-59
2023/11/25 06:26:37;;;;;;;5.47;1.42;;;;;;;24.21;37.38;97877.00;4484062;32;33881;-57
2023/11/25 06:29:05;;;;;;;2.47;1.23;;;;;;;24.18;37.50;97878.38;4484122;32;33170;-59
2023/11/25 06:31:35;;;;;;;4.90;1.40;;;;;;;24.18;37.50;97881.09;4484095;32;34665;-58
2023/11/25 06:34:03;;;;;;;2.62;1.33;;;;;;;24.17;37.61;97879.47;4482433;32;35141;-58
2023/11/25 06:36:31;;;;;;;3.47;1.20;;;;;;;24.15;37.56;97877.03;4484053;32;34705;-59
2023/11/25 06:38:58;;;;;;;3.47;1.90;;;;;;;24.15;37.56;97870.72;4483969;32;34334;-59
2023/11/25 06:41:27;;;;;;;3.10;1.45;;;;;;;24.15;37.58;97873.47;4483955;32;33686;-58
2023/11/25 06:43:54;;;;;;;3.03;1.48;;;;;;;24.14;37.64;97867.19;4484116;32;33842;-58
2023/11/25 06:46:25;;;;;;;3.97;1.48;;;;;;;24.14;37.67;97880.81;4483954;32;34573;-58
2023/11/25 06:48:53;;;;;;;2.97;1.30;;;;;;;24.14;37.63;97875.37;4484459;32;33472;-59
2023/11/25 06:51:21;;;;;;;2.70;1.20;;;;;;;24.12;37.71;97879.47;4484636;32;34086;-59
2023/11/25 06:53:48;;;;;;;4.35;1.33;;;;;;;24.13;37.63;97884.66;4484349;32;34030;-57
2023/11/25 06:56:16;;;;;;;2.40;1.10;;;;;;;24.13;37.68;97889.28;4484490;32;33789;-57
2023/11/25 06:58:45;;;;;;;2.70;1.40;;;;;;;24.13;37.69;97901.00;4483830;32;34028;-59
2023/11/25 07:01:18;;;;;;;6.70;1.80;;;;;;;24.13;37.64;97906.44;4484545;32;34066;-58
2023/11/25 07:03:46;;;;;;;7.47;1.67;;;;;;;24.12;37.71;97899.38;4483265;32;34027;-59
2023/11/25 07:06:18;;;;;;;5.15;1.60;;;;;;;24.12;37.67;97904.81;4484585;31;34180;-59
2023/11/25 07:08:45;;;;;;;2.92;1.40;;;;;;;24.11;37.14;97916.00;4500074;31;33303;-57
2023/11/25 07:11:13;;;;;;;2.22;1.40;;;;;;;24.08;36.87;97920.09;4490373;31;33996;-57
2023/11/25 07:13:42;;;;;;;3.37;1.25;;;;;;;24.08;36.99;97924.72;4483739;32;33962;-58
2023/11/25 07:16:12;;;;;;;4.25;1.00;;;;;;;24.08;36.99;97922.00;4468528;32;33662;-58
2023/11/25 07:18:43;;;;;;;4.47;1.50;;;;;;;24.07;37.05;97923.09;4468579;32;33458;-59
2023/11/25 07:21:11;;;;;;;3.20;1.20;;;;;;;24.09;37.13;97931.78;4470046;32;34034;-58
2023/11/25 07:23:39;;;;;;;4.37;1.30;;;;;;;24.07;37.17;97926.63;4482645;32;34078;-58
2023/11/25 07:26:07;;;;;;;2.90;1.10;;;;;;;24.08;37.24;97927.44;4483800;32;33906;-60
2023/11/25 07:28:35;;;;;;;2.85;1.20;;;;;;;24.07;37.24;97926.63;4483909;32;34351;-57
2023/11/25 07:31:03;;;;;;;2.65;1.48;;;;;;;24.07;37.29;97921.19;4483873;32;34687;-56
2023/11/25 07:33:31;;;;;;;5.30;1.62;;;;;;;24.08;37.30;97922.00;4484040;32;34767;-58
2023/11/25 07:35:59;;;;;;;2.53;1.30;;;;;;;24.07;37.36;97929.34;4486224;32;34045;-93
2023/11/25 07:38:28;;;;;;;3.40;1.27;;;;;;;24.06;37.37;97935.06;4509257;26;34219;-89
2023/11/25 07:40:56;;;;;;;2.67;1.25;;;;;;;24.06;37.38;97932.34;4488436;32;34313;-96
2023/11/25 07:43:24;;;;;;;2.85;1.25;;;;;;;24.07;37.46;97934.81;4478898;32;34167;-95
2023/11/25 07:45:52;;;;;;;7.57;1.70;;;;;;;24.07;37.47;97926.63;4476772;32;33787;-90
2023/11/25 07:48:20;;;;;;;3.72;1.30;;;;;;;24.07;37.47;97928.53;4475509;32;34105;-93
2023/11/25 07:50:47;;;;;;;1.92;1.10;;;;;;;24.07;37.51;97934.81;4475405;32;34167;-94
2023/11/25 07:53:22;;;;;;;;;;;;;;;24.06;37.50;97930.44;4476605;32;34122;-93
2023/11/25 07:55:51;;;;;;;2.00;1.20;;;;;;;24.18;37.28;97941.03;4458233;32;33809;-86
2023/11/25 07:58:19;;;;;;;10.60;2.70;;;;;;;24.09;37.49;97938.06;4477598;32;33877;-96
2023/11/25 08:00:47;;;;;;;7.43;2.20;;;;;;;24.12;34.76;97940.25;4488781;32;34181;-95
2023/11/25 08:03:14;;;;;;;8.30;2.25;;;;;;;24.01;32.51;97935.87;4490352;32;33994;-90
2023/11/25 08:05:42;;;;;;;12.93;2.35;;;;;;;23.96;33.15;97945.97;4475679;32;33851;-88
2023/11/25 08:08:11;;;;;;;5.75;2.15;;;;;;;23.90;33.68;97948.72;4490426;32;33393;-88
2023/11/25 08:10:38;;;;;;;8.98;1.75;;;;;;;23.89;34.49;97940.81;4491306;32;34759;-95
2023/11/25 08:13:06;;;;;;;4.65;1.95;;;;;;;23.87;34.75;97938.34;4491435;32;34400;-95
2023/11/25 08:15:34;;;;;;;5.47;1.98;;;;;;;23.86;34.82;97939.44;4495134;32;34795;-95
2023/11/25 08:18:03;;;;;;;6.60;1.73;;;;;;;23.83;34.83;97937.28;4491926;32;33247;-94
2023/11/25 08:20:33;;;;;;;2.72;1.60;;;;;;;23.83;34.94;97936.47;4493991;32;34151;-95
2023/11/25 08:23:00;;;;;;;2.67;1.75;;;;;;;23.81;35.11;97933.19;4493273;32;34103;-71
2023/11/25 08:25:28;;;;;;;7.20;1.98;;;;;;;23.82;35.09;97937.56;4497726;32;35286;-77
2023/11/25 08:30:59;;;;;;;5.70;1.90;;;;;;;23.80;35.29;97937.00;5073608;27;20010;-63
2023/11/25 08:33:33;;;;;;;5.60;2.03;;;;;;;23.78;35.56;97934.56;4869448;27;33815;31
2023/11/25 08:36:11;;;;;;;6.12;1.67;;;;;;;23.79;35.63;97944.38;4648621;27;34930;31
2023/11/25 09:15:58;;;;;;;7.12;1.35;;;;;;;23.75;36.37;97975.97;5051507;27;20041;31
2023/11/25 09:21:36;;;;;;;6.03;1.90;;;;;;;23.74;36.40;97977.06;4769911;27;20099;-64
2023/11/25 09:24:05;;;;;;;4.00;1.40;;;;;;;23.75;36.41;97975.16;4360039;32;33965;-64
2023/11/25 09:26:33;;;;;;;7.80;1.60;;;;;;;23.75;36.47;97975.97;4358176;32;34288;-64
2023/11/25 09:29:00;;;;;;;5.40;1.45;;;;;;;23.77;36.49;97967.50;4359826;32;34728;-64
2023/11/25 09:31:28;;;;;;;8.85;1.80;;;;;;;23.77;36.59;97967.50;4361252;32;34043;-64
2023/11/25 09:33:56;;;;;;;10.07;2.17;;;;;;;23.78;36.49;97969.12;4361154;32;33947;-64
2023/11/25 09:36:24;;;;;;;7.30;1.50;;;;;;;23.78;36.52;97959.09;4361665;32;33183;-65
2023/11/25 09:38:53;;;;;;;4.30;1.77;;;;;;;23.78;36.51;97969.97;4347986;32;34653;-64
2023/11/25 09:41:20;;;;;;;7.72;1.98;;;;;;;23.81;32.94;97963.16;4361097;32;34008;-65
2023/11/25 09:43:48;;;;;;;4.35;1.90;;;;;;;23.63;32.06;97957.13;4336735;33;33976;-65
2023/11/25 09:46:16;;;;;;;5.95;2.00;;;;;;;23.56;33.17;97959.31;4332091;32;34163;-65
2023/11/25 09:48:45;;;;;;;6.15;1.75;;;;;;;23.54;33.65;97957.94;4361353;32;33634;-65
2023/11/25 09:51:13;;;;;;;5.03;1.62;;;;;;;23.53;33.83;97951.69;4347997;32;33987;-65
2023/11/25 09:53:41;;;;;;;11.05;1.87;;;;;;;23.55;33.96;97952.25;4333934;32;34653;-65
2023/11/25 09:56:10;;;;;;;10.07;2.30;;;;;;;23.56;34.31;97942.16;4338223;32;33892;-64
2023/11/25 09:58:38;;;;;;;8.55;1.80;;;;;;;23.60;34.54;97940.53;4362588;32;33895;-65
2023/11/25 10:01:05;;;;;;;10.75;2.05;;;;;;;23.69;34.52;97936.22;4364761;32;34028;-64
2023/11/25 10:03:35;;;;;;;9.55;1.75;;;;;;;23.69;34.61;97938.94;4361127;32;33975;-64
2023/11/25 10:06:03;;;;;;;7.07;1.83;;;;;;;23.72;34.79;97943.00;4361296;32;34303;-64
2023/11/25 10:08:30;;;;;;;9.35;1.90;;;;;;;23.81;34.89;97954.97;4361016;32;33566;-64
2023/11/25 10:11:08;;;;;;;9.80;2.10;;;;;;;23.92;35.03;97953.88;4347982;32;33193;-65
2023/11/25 10:13:38;;;;;;;4.60;1.58;;;;;;;24.04;35.03;97962.59;4361919;32;33834;-65
2023/11/25 10:16:06;;;;;;;6.03;1.90;;;;;;;24.19;35.00;97953.56;4361997;32;33357;-62
2023/11/25 10:18:38;;;;;;;5.15;1.30;;;;;;;24.33;34.92;97960.06;4362209;32;34764;-62
2023/11/25 10:21:06;;;;;;;3.95;1.58;;;;;;;24.49;34.79;97951.91;4348564;32;33885;-63
2023/11/25 10:23:35;;;;;;;8.45;1.50;;;;;;;24.63;34.72;97953.75;4348632;32;33537;-63
2023/11/25 10:26:03;;;;;;;4.97;1.67;;;;;;;24.75;34.64;97958.06;4348561;32;33322;-63
2023/11/25 10:28:33;;;;;;;6.72;1.27;;;;;;;24.86;34.53;97965.13;4361675;32;34456;-63
2023/11/25 10:31:04;;;;;;;7.45;2.05;;;;;;;24.94;34.50;97964.50;4361500;32;34950;-63
2023/11/25 10:33:33;;;;;;;9.48;1.50;;;;;;;25.03;34.46;97946.44;4360892;32;33867;-63
2023/11/25 10:36:02;;;;;;;;;;;;;;;25.10;34.42;97952.47;4361078;32;33329;-63
2023/11/25 10:38:29;;;;;;;5.75;1.90;;;;;;;25.29;34.09;97952.59;4360617;32;33991;-64
2023/11/25 10:41:01;;;;;;;6.28;2.08;;;;;;;25.29;33.98;97941.69;4348585;32;33652;-63
2023/11/25 10:43:30;;;;;;;8.07;2.15;;;;;;;25.34;33.79;97930.72;4323663;32;35296;-63
2023/11/25 10:46:02;;;;;;;4.97;2.15;;;;;;;25.43;33.52;97937.22;4357170;32;33294;-63
2023/11/25 10:48:30;;;;;;;5.90;1.90;;;;;;;25.50;33.30;97938.81;4346986;32;34058;-63
2023/11/25 10:50:58;;;;;;;5.37;1.65;;;;;;;25.57;33.04;97953.78;4360357;32;35395;-63
2023/11/25 10:53:29;;;;;;;9.10;1.87;;;;;;;25.64;32.81;97947.97;4360522;32;33934;-63
2023/11/25 10:55:59;;;;;;;9.60;1.70;;;;;;;25.72;32.57;97943.81;4361887;32;33092;-64
2023/11/25 10:58:29;;;;;;;4.15;1.67;;;;;;;25.78;32.32;97946.25;4335830;33;34091;-63
2023/11/25 11:01:00;;;;;;;2.65;1.52;;;;;;;25.88;32.13;97951.63;4376025;32;33688;-63
2023/11/25 11:03:49;;;;;;;3.42;1.40;;;;;;;25.94;31.97;97945.00;4376549;32;33907;-63
2023/11/25 11:06:20;;;;;;;4.35;1.70;;;;;;;26.02;31.94;97951.78;4363096;32;34279;-63
2023/11/25 11:08:48;;;;;;;4.28;1.80;;;;;;;26.03;32.06;97939.75;4333195;33;33210;-64
2023/11/25 11:11:16;;;;;;;4.28;1.58;;;;;;;26.07;32.11;97935.34;4321596;33;33864;-64
2023/11/25 11:14:11;;;;;;;5.55;1.50;;;;;;;26.11;32.12;97932.81;4333672;33;33568;-64
2023/11/25 11:16:39;;;;;;;6.07;1.50;;;;;;;26.23;32.10;97932.44;4335303;32;34328;-63
2023/11/25 11:19:07;;;;;;;3.92;1.75;;;;;;;26.25;32.14;97930.22;4361529;32;33731;-63
2023/11/25 11:21:37;;;;;;;3.28;1.40;;;;;;;26.29;32.19;97928.53;4357255;32;33844;-63
2023/11/25 11:24:06;;;;;;;3.85;1.37;;;;;;;26.32;32.23;97931.50;4342136;32;33857;-65
2023/11/25 11:26:49;;;;;;;3.65;1.25;;;;;;;26.36;32.29;97918.88;4326217;33;33431;-66
2023/11/25 11:29:36;;;;;;;5.07;1.60;;;;;;;26.43;32.26;97921.28;4341933;32;34699;-64
2023/11/25 11:32:06;;;;;;;6.28;1.70;;;;;;;26.42;32.19;97923.19;4358219;32;34020;-65
2023/11/25 11:34:35;;;;;;;4.78;1.65;;;;;;;26.41;32.11;97932.50;4333378;32;33551;-66
2023/11/25 11:37:06;;;;;;;3.87;1.42;;;;;;;26.42;32.03;97925.91;4358937;32;34282;-65
2023/11/25 11:39:37;;;;;;;5.05;1.50;;;;;;;26.41;31.94;97937.97;4358566;32;34707;-66
2023/11/25 11:42:26;;;;;;;5.80;1.90;;;;;;;26.40;31.81;97924.59;4358375;32;33618;-66
2023/11/25 11:45:27;;;;;;;6.80;1.63;;;;;;;26.40;31.65;97924.59;4358658;32;33328;-66
2023/11/25 11:47:56;;;;;;;4.12;1.73;;;;;;;26.39;31.51;97912.84;4322282;33;33436;-65
2023/11/25 11:50:27;;;;;;;4.57;1.58;;;;;;;26.31;31.49;97904.47;4348396;32;33499;-66
2023/11/25 11:53:01;;;;;;;4.78;1.70;;;;;;;26.27;31.44;97904.22;4357745;32;33504;-65
2023/11/25 11:55:31;;;;;;;4.15;1.67;;;;;;;26.23;31.40;97903.19;4360879;32;33713;-65
2023/11/25 11:58:09;;;;;;;4.75;1.67;;;;;;;26.19;31.30;97907.59;4361383;32;34127;-66
2023/11/25 12:00:59;;;;;;;4.40;1.70;;;;;;;26.14;31.23;97913.91;4346247;32;35524;-65
2023/11/25 12:03:28;;;;;;;6.18;1.83;;;;;;;26.13;31.20;97915.03;4346668;32;34016;-65
2023/11/25 12:05:56;;;;;;;4.53;1.50;;;;;;;26.06;31.34;97917.28;4360561;32;33907;-65
2023/11/25 12:08:24;;;;;;;4.28;1.45;;;;;;;26.02;31.40;97907.22;4336836;32;34335;-64
2023/11/25 12:10:52;;;;;;;5.55;1.85;;;;;;;25.98;31.46;97914.38;4348779;32;34063;-65
2023/11/25 12:13:29;;;;;;;5.60;1.80;;;;;;;25.94;31.53;97906.75;4365979;32;34933;-66
2023/11/25 12:15:59;;;;;;;4.03;1.65;;;;;;;25.91;31.60;97921.00;4375996;32;34418;-66
2023/11/25 12:18:28;;;;;;;;;;;;;;;25.86;31.78;97925.69;4351088;32;34172;-65
2023/11/25 12:20:55;;;;;;;3.65;1.62;;;;;;;25.93;31.64;97920.72;4359073;32;34322;-64
2023/11/25 12:23:26;;;;;;;5.15;1.77;;;;;;;25.81;32.01;97921.09;4353110;32;34806;-64
2023/11/25 12:26:11;;;;;;;4.57;1.70;;;;;;;25.75;32.13;97910.47;4357330;32;33960;-63
2023/11/25 12:28:45;;;;;;;6.90;1.85;;;;;;;25.70;31.90;97917.63;4362503;32;33209;-64